This is the latest recevied weather packets stored in our database for station/object KK7RJD. If no packets are shown the sender has not sent any weather packets the latest 10 day(s).
| Time | Temp. | Humidity | Pressure | Rain* | Wind** | Luminosity | Snow |
|---|---|---|---|---|---|---|---|
| 1777933163 | 12.78° C | 39% | 1012.1 hPa | 0 mm | - | 684 W/m² | - |
| 1777932859 | 13.33° C | 38% | 1012 hPa | 0 mm | - | 689 W/m² | - |
| 1777932556 | 12.78° C | 41% | 1012 hPa | 0 mm | - | 739 W/m² | - |
| 1777932253 | 12.78° C | 39% | 1011.9 hPa | 0 mm | - | 633 W/m² | - |
| 1777931950 | 12.78° C | 40% | 1012 hPa | 0 mm | - | 639 W/m² | - |
| 1777931647 | 12.78° C | 42% | 1011.9 hPa | 0 mm | - | 660 W/m² | - |
| 1777931343 | 12.78° C | 40% | 1012 hPa | 0 mm | - | 387 W/m² | - |
| 1777931040 | 13.33° C | 39% | 1012.1 hPa | 0 mm | - | 333 W/m² | - |
| 1777930736 | 13.89° C | 39% | 1012 hPa | 0 mm | - | 843 W/m² | - |
| 1777930432 | 13.89° C | 40% | 1012 hPa | 0 mm | - | 830 W/m² | - |
| 1777930130 | 13.33° C | 42% | 1011.8 hPa | 0 mm | - | 793 W/m² | - |
| 1777929826 | 12.78° C | 41% | 1012 hPa | 0 mm | - | 296 W/m² | - |
| 1777929524 | 13.89° C | 39% | 1011.9 hPa | 0 mm | - | 385 W/m² | - |
| 1777929219 | 13.33° C | 41% | 1012.1 hPa | 0 mm | - | 409 W/m² | - |
| 1777928917 | 13.33° C | 41% | 1012 hPa | 0 mm | - | 1005 W/m² | - |
| 1777928614 | 13.89° C | 39% | 1012 hPa | 0 mm | - | 725 W/m² | - |
| 1777928311 | 13.89° C | 39% | 1012 hPa | 0 mm | - | 733 W/m² | - |
| 1777928009 | 13.33° C | 40% | 1012.4 hPa | 0 mm | - | 915 W/m² | - |
| 1777927707 | 13.33° C | 41% | 1012 hPa | 0 mm | - | 332 W/m² | - |
| 1777927405 | 13.89° C | 41% | 1012.3 hPa | 0 mm | - | 957 W/m² | - |
| 1777927104 | 13.33° C | 42% | 1012 hPa | 0 mm | - | 377 W/m² | - |
| 1777926801 | 13.89° C | 40% | 1012 hPa | 0 mm | - | 989 W/m² | - |
| 1777926496 | 13.89° C | 42% | 1012.1 hPa | 0 mm | - | 353 W/m² | - |
| 1777926194 | 13.33° C | 42% | 1012.3 hPa | 0 mm | - | 957 W/m² | - |
| 1777925890 | 13.33° C | 41% | 1012.1 hPa | 0 mm | - | 274 W/m² | - |
* Rain latest hour (hover to see other rain measurements)
** Current wind speed in m/s (hover to see current wind gust speed)